sensor_id;sensor_type;location;lat;lon;timestamp;temperature;humidity
5639;DHT22;2841;44.526;11.360;2023-04-07T00:01:40;7.00;44.30
5639;DHT22;2841;44.526;11.360;2023-04-07T00:04:07;6.90;44.40
5639;DHT22;2841;44.526;11.360;2023-04-07T00:06:34;6.90;44.50
5639;DHT22;2841;44.526;11.360;2023-04-07T00:09:01;6.80;44.50
5639;DHT22;2841;44.526;11.360;2023-04-07T00:11:28;6.80;44.60
5639;DHT22;2841;44.526;11.360;2023-04-07T00:13:54;6.70;44.70
5639;DHT22;2841;44.526;11.360;2023-04-07T00:16:22;6.70;44.80
5639;DHT22;2841;44.526;11.360;2023-04-07T00:18:50;6.70;44.90
5639;DHT22;2841;44.526;11.360;2023-04-07T00:21:17;6.60;44.90
5639;DHT22;2841;44.526;11.360;2023-04-07T00:23:43;6.60;45.00
5639;DHT22;2841;44.526;11.360;2023-04-07T00:26:11;6.60;45.10
5639;DHT22;2841;44.526;11.360;2023-04-07T00:28:38;6.60;45.20
5639;DHT22;2841;44.526;11.360;2023-04-07T00:31:04;6.60;45.20
5639;DHT22;2841;44.526;11.360;2023-04-07T00:33:31;6.70;45.30
5639;DHT22;2841;44.526;11.360;2023-04-07T00:35:59;6.70;45.30
5639;DHT22;2841;44.526;11.360;2023-04-07T00:38:26;6.60;45.30
5639;DHT22;2841;44.526;11.360;2023-04-07T00:40:56;6.60;45.40
5639;DHT22;2841;44.526;11.360;2023-04-07T00:43:22;6.50;45.40
5639;DHT22;2841;44.526;11.360;2023-04-07T00:45:50;6.50;45.50
5639;DHT22;2841;44.526;11.360;2023-04-07T00:48:16;6.50;45.60
5639;DHT22;2841;44.526;11.360;2023-04-07T00:50:44;6.40;45.60
5639;DHT22;2841;44.526;11.360;2023-04-07T00:53:12;6.40;45.70
5639;DHT22;2841;44.526;11.360;2023-04-07T00:55:39;6.40;45.80
5639;DHT22;2841;44.526;11.360;2023-04-07T00:58:05;6.40;45.90
5639;DHT22;2841;44.526;11.360;2023-04-07T01:00:32;6.30;46.00
5639;DHT22;2841;44.526;11.360;2023-04-07T01:03:03;6.40;46.00
5639;DHT22;2841;44.526;11.360;2023-04-07T01:05:34;6.30;46.00
5639;DHT22;2841;44.526;11.360;2023-04-07T01:08:07;6.30;46.10
5639;DHT22;2841;44.526;11.360;2023-04-07T01:10:41;6.40;46.20
5639;DHT22;2841;44.526;11.360;2023-04-07T01:13:12;6.40;46.20
5639;DHT22;2841;44.526;11.360;2023-04-07T01:15:40;6.40;46.10
5639;DHT22;2841;44.526;11.360;2023-04-07T01:18:09;6.40;46.10
5639;DHT22;2841;44.526;11.360;2023-04-07T01:20:36;6.50;46.20
5639;DHT22;2841;44.526;11.360;2023-04-07T01:23:04;6.50;46.20
5639;DHT22;2841;44.526;11.360;2023-04-07T01:25:49;6.60;46.30
5639;DHT22;2841;44.526;11.360;2023-04-07T01:28:27;6.60;46.30
5639;DHT22;2841;44.526;11.360;2023-04-07T01:31:00;6.60;46.40
5639;DHT22;2841;44.526;11.360;2023-04-07T01:33:26;6.70;46.50
5639;DHT22;2841;44.526;11.360;2023-04-07T01:35:56;6.90;46.50
5639;DHT22;2841;44.526;11.360;2023-04-07T01:38:23;7.00;46.30
5639;DHT22;2841;44.526;11.360;2023-04-07T01:40:50;7.00;46.20
5639;DHT22;2841;44.526;11.360;2023-04-07T01:43:17;7.10;46.20
5639;DHT22;2841;44.526;11.360;2023-04-07T01:45:44;7.10;46.10
5639;DHT22;2841;44.526;11.360;2023-04-07T01:48:13;7.00;46.10
5639;DHT22;2841;44.526;11.360;2023-04-07T01:50:41;6.90;46.20
5639;DHT22;2841;44.526;11.360;2023-04-07T01:53:08;6.80;46.20
5639;DHT22;2841;44.526;11.360;2023-04-07T01:55:36;6.70;46.40
5639;DHT22;2841;44.526;11.360;2023-04-07T01:58:03;6.60;46.50
5639;DHT22;2841;44.526;11.360;2023-04-07T02:00:30;6.50;46.60
5639;DHT22;2841;44.526;11.360;2023-04-07T02:03:00;6.50;46.80
5639;DHT22;2841;44.526;11.360;2023-04-07T02:05:32;6.40;46.80
5639;DHT22;2841;44.526;11.360;2023-04-07T02:08:01;6.40;46.90
5639;DHT22;2841;44.526;11.360;2023-04-07T02:10:29;6.30;47.00
5639;DHT22;2841;44.526;11.360;2023-04-07T02:12:58;6.30;47.00
5639;DHT22;2841;44.526;11.360;2023-04-07T02:15:25;6.30;47.20
5639;DHT22;2841;44.526;11.360;2023-04-07T02:17:53;6.40;47.20
5639;DHT22;2841;44.526;11.360;2023-04-07T02:20:21;6.40;47.00
5639;DHT22;2841;44.526;11.360;2023-04-07T02:22:50;6.40;47.00
5639;DHT22;2841;44.526;11.360;2023-04-07T02:25:21;6.40;47.10
5639;DHT22;2841;44.526;11.360;2023-04-07T02:27:48;6.30;47.00
5639;DHT22;2841;44.526;11.360;2023-04-07T02:30:15;6.20;47.10
5639;DHT22;2841;44.526;11.360;2023-04-07T02:32:42;6.20;47.20
5639;DHT22;2841;44.526;11.360;2023-04-07T02:35:09;6.10;47.30
5639;DHT22;2841;44.526;11.360;2023-04-07T02:37:36;6.10;47.40
5639;DHT22;2841;44.526;11.360;2023-04-07T02:40:05;6.10;47.50
5639;DHT22;2841;44.526;11.360;2023-04-07T02:42:32;6.10;47.50
5639;DHT22;2841;44.526;11.360;2023-04-07T02:44:58;6.10;47.50
5639;DHT22;2841;44.526;11.360;2023-04-07T02:47:25;6.10;47.60
5639;DHT22;2841;44.526;11.360;2023-04-07T02:49:52;6.10;47.60
5639;DHT22;2841;44.526;11.360;2023-04-07T02:52:19;6.10;47.70
5639;DHT22;2841;44.526;11.360;2023-04-07T02:54:45;6.00;47.60
5639;DHT22;2841;44.526;11.360;2023-04-07T02:57:14;6.00;47.70
5639;DHT22;2841;44.526;11.360;2023-04-07T02:59:41;6.00;47.80
5639;DHT22;2841;44.526;11.360;2023-04-07T03:02:07;6.00;47.80
5639;DHT22;2841;44.526;11.360;2023-04-07T03:04:34;6.00;47.90
5639;DHT22;2841;44.526;11.360;2023-04-07T03:07:01;6.00;47.90
5639;DHT22;2841;44.526;11.360;2023-04-07T03:09:28;6.00;47.90
5639;DHT22;2841;44.526;11.360;2023-04-07T03:11:55;6.00;47.90
5639;DHT22;2841;44.526;11.360;2023-04-07T03:14:24;6.00;47.90
5639;DHT22;2841;44.526;11.360;2023-04-07T03:16:51;6.10;48.00
5639;DHT22;2841;44.526;11.360;2023-04-07T03:19:17;6.10;48.10
5639;DHT22;2841;44.526;11.360;2023-04-07T03:21:44;6.10;48.10
5639;DHT22;2841;44.526;11.360;2023-04-07T03:24:11;6.10;48.20
5639;DHT22;2841;44.526;11.360;2023-04-07T03:26:37;6.10;48.20
5639;DHT22;2841;44.526;11.360;2023-04-07T03:29:04;6.10;48.30
5639;DHT22;2841;44.526;11.360;2023-04-07T03:31:33;6.30;48.40
5639;DHT22;2841;44.526;11.360;2023-04-07T03:33:59;6.40;48.20
5639;DHT22;2841;44.526;11.360;2023-04-07T03:36:26;6.60;48.10
5639;DHT22;2841;44.526;11.360;2023-04-07T03:38:53;6.70;47.90
5639;DHT22;2841;44.526;11.360;2023-04-07T03:41:20;6.80;47.70
5639;DHT22;2841;44.526;11.360;2023-04-07T03:43:46;6.90;47.60
5639;DHT22;2841;44.526;11.360;2023-04-07T03:46:13;7.00;47.50
5639;DHT22;2841;44.526;11.360;2023-04-07T03:48:41;6.90;47.40
5639;DHT22;2841;44.526;11.360;2023-04-07T03:51:08;6.90;47.40
5639;DHT22;2841;44.526;11.360;2023-04-07T03:53:34;6.70;47.40
5639;DHT22;2841;44.526;11.360;2023-04-07T03:56:02;6.70;47.60
5639;DHT22;2841;44.526;11.360;2023-04-07T03:58:28;6.60;47.70
5639;DHT22;2841;44.526;11.360;2023-04-07T04:00:55;6.40;47.70
5639;DHT22;2841;44.526;11.360;2023-04-07T04:03:22;6.70;48.20
5639;DHT22;2841;44.526;11.360;2023-04-07T04:05:50;6.20;48.10
5639;DHT22;2841;44.526;11.360;2023-04-07T04:08:17;6.10;48.10
5639;DHT22;2841;44.526;11.360;2023-04-07T04:10:44;6.10;48.20
5639;DHT22;2841;44.526;11.360;2023-04-07T04:13:10;6.00;48.20
5639;DHT22;2841;44.526;11.360;2023-04-07T04:15:37;5.90;48.20
5639;DHT22;2841;44.526;11.360;2023-04-07T04:18:04;5.90;48.30
5639;DHT22;2841;44.526;11.360;2023-04-07T04:20:31;5.80;48.40
5639;DHT22;2841;44.526;11.360;2023-04-07T04:22:59;5.90;48.60
5639;DHT22;2841;44.526;11.360;2023-04-07T04:25:26;5.90;48.60
5639;DHT22;2841;44.526;11.360;2023-04-07T04:27:52;5.90;49.10
5639;DHT22;2841;44.526;11.360;2023-04-07T04:30:19;5.90;48.40
5639;DHT22;2841;44.526;11.360;2023-04-07T04:32:46;5.90;48.50
5639;DHT22;2841;44.526;11.360;2023-04-07T04:35:13;5.90;48.60
5639;DHT22;2841;44.526;11.360;2023-04-07T04:37:40;5.80;48.60
5639;DHT22;2841;44.526;11.360;2023-04-07T04:40:09;5.70;48.60
5639;DHT22;2841;44.526;11.360;2023-04-07T04:42:36;5.60;48.70
5639;DHT22;2841;44.526;11.360;2023-04-07T04:45:03;5.40;48.70
5639;DHT22;2841;44.526;11.360;2023-04-07T04:47:30;5.30;48.90
5639;DHT22;2841;44.526;11.360;2023-04-07T04:49:57;5.20;49.00
5639;DHT22;2841;44.526;11.360;2023-04-07T04:52:24;5.20;49.10
5639;DHT22;2841;44.526;11.360;2023-04-07T04:54:52;5.10;49.20
5639;DHT22;2841;44.526;11.360;2023-04-07T04:57:20;5.10;49.20
5639;DHT22;2841;44.526;11.360;2023-04-07T04:59:47;5.10;49.30
5639;DHT22;2841;44.526;11.360;2023-04-07T05:02:13;5.10;49.30
5639;DHT22;2841;44.526;11.360;2023-04-07T05:04:40;5.00;49.30
5639;DHT22;2841;44.526;11.360;2023-04-07T05:07:07;5.00;49.40
5639;DHT22;2841;44.526;11.360;2023-04-07T05:09:34;4.90;49.30
5639;DHT22;2841;44.526;11.360;2023-04-07T05:12:00;4.90;49.50
5639;DHT22;2841;44.526;11.360;2023-04-07T05:14:28;5.00;49.50
5639;DHT22;2841;44.526;11.360;2023-04-07T05:16:55;5.00;49.50
5639;DHT22;2841;44.526;11.360;2023-04-07T05:19:22;5.00;49.50
5639;DHT22;2841;44.526;11.360;2023-04-07T05:21:49;5.10;49.50
5639;DHT22;2841;44.526;11.360;2023-04-07T05:24:15;5.10;49.50
5639;DHT22;2841;44.526;11.360;2023-04-07T05:26:42;5.20;50.10
5639;DHT22;2841;44.526;11.360;2023-04-07T05:29:09;5.20;49.40
5639;DHT22;2841;44.526;11.360;2023-04-07T05:31:37;5.30;49.50
5639;DHT22;2841;44.526;11.360;2023-04-07T05:34:05;5.30;49.40
5639;DHT22;2841;44.526;11.360;2023-04-07T05:36:32;5.40;49.50
5639;DHT22;2841;44.526;11.360;2023-04-07T05:38:59;5.40;49.50
5639;DHT22;2841;44.526;11.360;2023-04-07T05:41:25;5.50;49.50
5639;DHT22;2841;44.526;11.360;2023-04-07T05:43:52;5.50;49.50
5639;DHT22;2841;44.526;11.360;2023-04-07T05:46:19;5.70;49.50
5639;DHT22;2841;44.526;11.360;2023-04-07T05:48:47;5.70;49.40
5639;DHT22;2841;44.526;11.360;2023-04-07T05:51:13;5.80;49.40
5639;DHT22;2841;44.526;11.360;2023-04-07T05:53:40;5.90;49.40
5639;DHT22;2841;44.526;11.360;2023-04-07T05:56:07;6.00;49.50
5639;DHT22;2841;44.526;11.360;2023-04-07T05:58:34;6.00;49.40
5639;DHT22;2841;44.526;11.360;2023-04-07T06:01:00;6.10;49.50
5639;DHT22;2841;44.526;11.360;2023-04-07T06:03:27;6.10;49.50
5639;DHT22;2841;44.526;11.360;2023-04-07T06:05:55;6.10;49.50
5639;DHT22;2841;44.526;11.360;2023-04-07T06:08:23;6.20;49.60
5639;DHT22;2841;44.526;11.360;2023-04-07T06:10:49;6.30;49.60
5639;DHT22;2841;44.526;11.360;2023-04-07T06:13:16;6.40;49.50
5639;DHT22;2841;44.526;11.360;2023-04-07T06:15:43;6.50;49.50
5639;DHT22;2841;44.526;11.360;2023-04-07T06:18:11;6.60;49.50
5639;DHT22;2841;44.526;11.360;2023-04-07T06:20:39;6.70;49.50
5639;DHT22;2841;44.526;11.360;2023-04-07T06:23:08;6.80;49.50
5639;DHT22;2841;44.526;11.360;2023-04-07T06:25:34;6.90;49.60
5639;DHT22;2841;44.526;11.360;2023-04-07T06:28:01;7.00;49.60
5639;DHT22;2841;44.526;11.360;2023-04-07T06:30:28;7.00;49.50
5639;DHT22;2841;44.526;11.360;2023-04-07T06:32:55;7.10;49.50
5639;DHT22;2841;44.526;11.360;2023-04-07T06:35:21;7.10;49.40
5639;DHT22;2841;44.526;11.360;2023-04-07T06:37:51;7.30;49.50
5639;DHT22;2841;44.526;11.360;2023-04-07T06:40:19;7.40;49.50
5639;DHT22;2841;44.526;11.360;2023-04-07T06:42:45;7.50;49.50
5639;DHT22;2841;44.526;11.360;2023-04-07T06:45:12;7.60;49.50
5639;DHT22;2841;44.526;11.360;2023-04-07T06:47:39;7.70;49.40
5639;DHT22;2841;44.526;11.360;2023-04-07T06:50:06;7.80;49.40
5639;DHT22;2841;44.526;11.360;2023-04-07T06:52:33;7.80;49.40
5639;DHT22;2841;44.526;11.360;2023-04-07T06:55:00;7.90;49.40
5639;DHT22;2841;44.526;11.360;2023-04-07T06:57:29;8.00;49.40
5639;DHT22;2841;44.526;11.360;2023-04-07T06:59:56;8.10;49.40
5639;DHT22;2841;44.526;11.360;2023-04-07T07:02:22;8.20;49.40
5639;DHT22;2841;44.526;11.360;2023-04-07T07:04:49;8.40;49.40
5639;DHT22;2841;44.526;11.360;2023-04-07T07:07:16;8.50;49.30
5639;DHT22;2841;44.526;11.360;2023-04-07T07:09:42;8.60;49.20
5639;DHT22;2841;44.526;11.360;2023-04-07T07:12:09;8.70;49.20
5639;DHT22;2841;44.526;11.360;2023-04-07T07:14:37;8.80;49.20
5639;DHT22;2841;44.526;11.360;2023-04-07T07:17:04;9.00;49.10
5639;DHT22;2841;44.526;11.360;2023-04-07T07:19:31;9.10;49.10
5639;DHT22;2841;44.526;11.360;2023-04-07T07:21:57;9.10;49.00
5639;DHT22;2841;44.526;11.360;2023-04-07T07:24:24;9.30;49.10
5639;DHT22;2841;44.526;11.360;2023-04-07T07:26:51;9.40;49.10
5639;DHT22;2841;44.526;11.360;2023-04-07T07:29:18;9.50;49.00
5639;DHT22;2841;44.526;11.360;2023-04-07T07:31:46;9.70;49.00
5639;DHT22;2841;44.526;11.360;2023-04-07T07:34:13;9.80;48.90
5639;DHT22;2841;44.526;11.360;2023-04-07T07:36:40;9.90;48.90
5639;DHT22;2841;44.526;11.360;2023-04-07T07:39:07;10.00;48.00
5639;DHT22;2841;44.526;11.360;2023-04-07T07:41:34;10.10;48.00
5639;DHT22;2841;44.526;11.360;2023-04-07T07:44:00;10.30;47.90
5639;DHT22;2841;44.526;11.360;2023-04-07T07:46:27;10.40;47.80
5639;DHT22;2841;44.526;11.360;2023-04-07T07:48:55;10.60;47.80
5639;DHT22;2841;44.526;11.360;2023-04-07T07:51:22;10.80;47.80
5639;DHT22;2841;44.526;11.360;2023-04-07T07:53:48;10.90;47.70
5639;DHT22;2841;44.526;11.360;2023-04-07T07:56:15;11.00;47.60
5639;DHT22;2841;44.526;11.360;2023-04-07T07:58:42;11.10;47.60
5639;DHT22;2841;44.526;11.360;2023-04-07T08:01:08;11.10;47.50
5639;DHT22;2841;44.526;11.360;2023-04-07T08:03:35;11.20;47.50
5639;DHT22;2841;44.526;11.360;2023-04-07T08:06:03;11.30;47.60
5639;DHT22;2841;44.526;11.360;2023-04-07T08:08:30;11.40;47.60
5639;DHT22;2841;44.526;11.360;2023-04-07T08:10:57;11.50;47.50
5639;DHT22;2841;44.526;11.360;2023-04-07T08:13:24;11.60;47.40
5639;DHT22;2841;44.526;11.360;2023-04-07T08:15:51;11.70;47.30
5639;DHT22;2841;44.526;11.360;2023-04-07T08:18:17;11.80;47.20
5639;DHT22;2841;44.526;11.360;2023-04-07T08:20:45;11.90;47.10
5639;DHT22;2841;44.526;11.360;2023-04-07T08:23:13;12.00;47.00
5639;DHT22;2841;44.526;11.360;2023-04-07T08:25:40;12.10;47.00
5639;DHT22;2841;44.526;11.360;2023-04-07T08:28:06;12.20;46.80
5639;DHT22;2841;44.526;11.360;2023-04-07T08:30:33;12.40;46.90
5639;DHT22;2841;44.526;11.360;2023-04-07T08:33:00;12.60;46.80
5639;DHT22;2841;44.526;11.360;2023-04-07T08:35:26;12.70;46.60
5639;DHT22;2841;44.526;11.360;2023-04-07T08:37:53;12.90;46.60
5639;DHT22;2841;44.526;11.360;2023-04-07T08:40:21;12.90;46.40
5639;DHT22;2841;44.526;11.360;2023-04-07T08:42:48;13.10;46.40
5639;DHT22;2841;44.526;11.360;2023-04-07T08:45:16;13.20;46.30
5639;DHT22;2841;44.526;11.360;2023-04-07T08:47:43;13.40;46.00
5639;DHT22;2841;44.526;11.360;2023-04-07T08:50:13;13.40;45.90
5639;DHT22;2841;44.526;11.360;2023-04-07T08:52:43;13.50;45.90
5639;DHT22;2841;44.526;11.360;2023-04-07T08:55:10;13.70;45.80
5639;DHT22;2841;44.526;11.360;2023-04-07T08:57:38;13.80;45.70
5639;DHT22;2841;44.526;11.360;2023-04-07T09:00:07;13.90;45.50
5639;DHT22;2841;44.526;11.360;2023-04-07T09:02:34;14.00;45.40
5639;DHT22;2841;44.526;11.360;2023-04-07T09:05:02;14.10;45.30
5639;DHT22;2841;44.526;11.360;2023-04-07T09:07:30;14.20;45.20
5639;DHT22;2841;44.526;11.360;2023-04-07T09:09:58;14.30;45.20
5639;DHT22;2841;44.526;11.360;2023-04-07T09:12:28;14.40;45.20
5639;DHT22;2841;44.526;11.360;2023-04-07T09:14:56;14.60;45.20
5639;DHT22;2841;44.526;11.360;2023-04-07T09:17:24;14.70;45.00
5639;DHT22;2841;44.526;11.360;2023-04-07T09:19:51;14.90;45.00
5639;DHT22;2841;44.526;11.360;2023-04-07T09:22:31;15.00;44.80
5639;DHT22;2841;44.526;11.360;2023-04-07T09:25:08;15.20;44.80
5639;DHT22;2841;44.526;11.360;2023-04-07T09:27:34;15.30;44.70
5639;DHT22;2841;44.526;11.360;2023-04-07T09:30:10;15.40;44.60
5639;DHT22;2841;44.526;11.360;2023-04-07T09:32:38;15.50;44.50
5639;DHT22;2841;44.526;11.360;2023-04-07T09:35:06;15.50;44.40
5639;DHT22;2841;44.526;11.360;2023-04-07T09:37:33;15.60;44.40
5639;DHT22;2841;44.526;11.360;2023-04-07T09:40:00;15.60;44.30
5639;DHT22;2841;44.526;11.360;2023-04-07T09:42:27;15.70;44.40
5639;DHT22;2841;44.526;11.360;2023-04-07T09:44:56;15.70;44.20
5639;DHT22;2841;44.526;11.360;2023-04-07T09:47:28;15.60;44.10
5639;DHT22;2841;44.526;11.360;2023-04-07T09:49:55;15.60;44.20
5639;DHT22;2841;44.526;11.360;2023-04-07T09:52:24;15.70;44.30
5639;DHT22;2841;44.526;11.360;2023-04-07T09:54:51;15.80;44.20
5639;DHT22;2841;44.526;11.360;2023-04-07T09:57:19;15.80;44.00
5639;DHT22;2841;44.526;11.360;2023-04-07T09:59:46;16.00;44.00
5639;DHT22;2841;44.526;11.360;2023-04-07T10:02:14;16.10;43.80
5639;DHT22;2841;44.526;11.360;2023-04-07T10:04:42;16.20;43.60
5639;DHT22;2841;44.526;11.360;2023-04-07T10:07:09;16.40;43.50
5639;DHT22;2841;44.526;11.360;2023-04-07T10:09:36;16.50;43.30
5639;DHT22;2841;44.526;11.360;2023-04-07T10:12:03;16.60;43.20
5639;DHT22;2841;44.526;11.360;2023-04-07T10:14:30;16.70;43.30
5639;DHT22;2841;44.526;11.360;2023-04-07T10:16:58;16.80;43.20
5639;DHT22;2841;44.526;11.360;2023-04-07T10:19:25;17.00;43.00
5639;DHT22;2841;44.526;11.360;2023-04-07T10:21:56;17.20;42.80
5639;DHT22;2841;44.526;11.360;2023-04-07T10:24:28;17.40;42.60
5639;DHT22;2841;44.526;11.360;2023-04-07T10:26:58;17.40;42.40
5639;DHT22;2841;44.526;11.360;2023-04-07T10:29:27;17.30;42.40
5639;DHT22;2841;44.526;11.360;2023-04-07T10:31:55;17.30;42.50
5639;DHT22;2841;44.526;11.360;2023-04-07T10:37:08;17.00;42.40
5639;DHT22;2841;44.526;11.360;2023-04-07T10:39:37;16.90;42.50
5639;DHT22;2841;44.526;11.360;2023-04-07T10:42:04;16.70;42.60
5639;DHT22;2841;44.526;11.360;2023-04-07T10:44:44;16.50;42.50
5639;DHT22;2841;44.526;11.360;2023-04-07T10:47:11;16.60;42.50
5639;DHT22;2841;44.526;11.360;2023-04-07T10:49:38;16.80;42.30
5639;DHT22;2841;44.526;11.360;2023-04-07T10:52:21;17.20;42.20
5639;DHT22;2841;44.526;11.360;2023-04-07T10:54:57;17.50;41.90
5639;DHT22;2841;44.526;11.360;2023-04-07T10:57:54;17.70;41.70
5639;DHT22;2841;44.526;11.360;2023-04-07T11:00:38;18.00;41.50
5639;DHT22;2841;44.526;11.360;2023-04-07T11:03:08;18.10;41.20
5639;DHT22;2841;44.526;11.360;2023-04-07T11:05:35;18.30;41.10
5639;DHT22;2841;44.526;11.360;2023-04-07T11:08:04;18.50;40.90
5639;DHT22;2841;44.526;11.360;2023-04-07T11:10:32;18.60;40.80
5639;DHT22;2841;44.526;11.360;2023-04-07T11:12:59;18.70;40.60
5639;DHT22;2841;44.526;11.360;2023-04-07T11:15:26;18.60;40.60
5639;DHT22;2841;44.526;11.360;2023-04-07T11:18:12;18.60;40.70
5639;DHT22;2841;44.526;11.360;2023-04-07T11:20:43;18.70;40.70
5639;DHT22;2841;44.526;11.360;2023-04-07T11:23:12;18.90;40.50
5639;DHT22;2841;44.526;11.360;2023-04-07T11:25:40;18.90;40.20
5639;DHT22;2841;44.526;11.360;2023-04-07T11:28:08;19.00;40.40
5639;DHT22;2841;44.526;11.360;2023-04-07T11:30:35;19.00;40.10
5639;DHT22;2841;44.526;11.360;2023-04-07T11:33:02;19.00;40.10
5639;DHT22;2841;44.526;11.360;2023-04-07T11:35:29;19.00;40.10
5639;DHT22;2841;44.526;11.360;2023-04-07T11:37:56;18.90;39.90
5639;DHT22;2841;44.526;11.360;2023-04-07T11:40:34;19.00;40.10
5639;DHT22;2841;44.526;11.360;2023-04-07T11:43:01;19.10;40.10
5639;DHT22;2841;44.526;11.360;2023-04-07T11:45:28;19.20;40.00
5639;DHT22;2841;44.526;11.360;2023-04-07T11:47:55;19.20;39.90
5639;DHT22;2841;44.526;11.360;2023-04-07T11:50:37;19.10;39.60
5639;DHT22;2841;44.526;11.360;2023-04-07T11:53:04;18.90;39.40
5639;DHT22;2841;44.526;11.360;2023-04-07T11:55:31;18.90;39.40
5639;DHT22;2841;44.526;11.360;2023-04-07T11:58:05;18.90;39.20
5639;DHT22;2841;44.526;11.360;2023-04-07T12:00:34;19.00;39.80
5639;DHT22;2841;44.526;11.360;2023-04-07T12:03:08;19.20;39.20
5639;DHT22;2841;44.526;11.360;2023-04-07T12:05:40;19.30;39.00
5639;DHT22;2841;44.526;11.360;2023-04-07T12:08:07;19.30;38.90
5639;DHT22;2841;44.526;11.360;2023-04-07T12:10:34;19.20;38.90
5639;DHT22;2841;44.526;11.360;2023-04-07T12:13:01;19.20;39.00
5639;DHT22;2841;44.526;11.360;2023-04-07T12:15:29;19.10;38.90
5639;DHT22;2841;44.526;11.360;2023-04-07T12:17:56;19.00;38.80
5639;DHT22;2841;44.526;11.360;2023-04-07T12:20:22;19.10;38.80
5639;DHT22;2841;44.526;11.360;2023-04-07T12:22:49;19.30;38.80
5639;DHT22;2841;44.526;11.360;2023-04-07T12:25:17;19.20;38.50
5639;DHT22;2841;44.526;11.360;2023-04-07T12:27:43;19.10;38.60
5639;DHT22;2841;44.526;11.360;2023-04-07T12:30:10;19.20;38.60
5639;DHT22;2841;44.526;11.360;2023-04-07T12:32:39;19.20;38.50
5639;DHT22;2841;44.526;11.360;2023-04-07T12:35:06;19.20;38.40
5639;DHT22;2841;44.526;11.360;2023-04-07T12:37:33;19.30;38.30
5639;DHT22;2841;44.526;11.360;2023-04-07T12:40:00;19.40;38.80
5639;DHT22;2841;44.526;11.360;2023-04-07T12:42:26;19.40;38.00
5639;DHT22;2841;44.526;11.360;2023-04-07T12:44:53;19.40;37.90
5639;DHT22;2841;44.526;11.360;2023-04-07T12:47:20;19.50;37.90
5639;DHT22;2841;44.526;11.360;2023-04-07T12:49:49;19.50;37.90
5639;DHT22;2841;44.526;11.360;2023-04-07T12:52:15;19.50;37.70
5639;DHT22;2841;44.526;11.360;2023-04-07T12:54:42;19.50;37.80
5639;DHT22;2841;44.526;11.360;2023-04-07T12:57:09;19.50;37.80
5639;DHT22;2841;44.526;11.360;2023-04-07T12:59:36;19.60;37.90
5639;DHT22;2841;44.526;11.360;2023-04-07T13:02:03;19.90;37.80
5639;DHT22;2841;44.526;11.360;2023-04-07T13:04:30;20.10;37.60
5639;DHT22;2841;44.526;11.360;2023-04-07T13:06:58;19.90;37.90
5639;DHT22;2841;44.526;11.360;2023-04-07T13:09:27;19.70;38.10
5639;DHT22;2841;44.526;11.360;2023-04-07T13:11:53;19.40;37.60
5639;DHT22;2841;44.526;11.360;2023-04-07T13:14:21;19.20;37.70
5639;DHT22;2841;44.526;11.360;2023-04-07T13:16:47;19.00;37.80
5639;DHT22;2841;44.526;11.360;2023-04-07T13:19:14;19.00;37.90
5639;DHT22;2841;44.526;11.360;2023-04-07T13:21:41;18.90;37.80
5639;DHT22;2841;44.526;11.360;2023-04-07T13:24:10;18.90;37.80
5639;DHT22;2841;44.526;11.360;2023-04-07T13:26:36;19.00;37.80
5639;DHT22;2841;44.526;11.360;2023-04-07T13:29:03;19.10;37.70
5639;DHT22;2841;44.526;11.360;2023-04-07T13:31:30;19.20;37.60
5639;DHT22;2841;44.526;11.360;2023-04-07T13:33:57;19.20;37.30
5639;DHT22;2841;44.526;11.360;2023-04-07T13:36:23;19.20;37.20
5639;DHT22;2841;44.526;11.360;2023-04-07T13:38:51;19.20;37.20
5639;DHT22;2841;44.526;11.360;2023-04-07T13:41:19;19.10;37.00
5639;DHT22;2841;44.526;11.360;2023-04-07T13:43:46;19.10;37.10
5639;DHT22;2841;44.526;11.360;2023-04-07T13:46:13;18.90;37.00
5639;DHT22;2841;44.526;11.360;2023-04-07T13:48:42;18.90;37.20
5639;DHT22;2841;44.526;11.360;2023-04-07T13:51:09;18.70;37.20
5639;DHT22;2841;44.526;11.360;2023-04-07T13:53:35;18.50;37.30
5639;DHT22;2841;44.526;11.360;2023-04-07T13:56:02;18.30;37.40
5639;DHT22;2841;44.526;11.360;2023-04-07T13:58:31;18.10;37.50
5639;DHT22;2841;44.526;11.360;2023-04-07T14:00:58;18.10;37.70
5639;DHT22;2841;44.526;11.360;2023-04-07T14:03:25;18.10;37.70
5639;DHT22;2841;44.526;11.360;2023-04-07T14:05:52;18.00;37.70
5639;DHT22;2841;44.526;11.360;2023-04-07T14:08:18;18.00;37.70
5639;DHT22;2841;44.526;11.360;2023-04-07T14:10:47;18.00;37.80
5639;DHT22;2841;44.526;11.360;2023-04-07T14:13:14;18.10;37.90
5639;DHT22;2841;44.526;11.360;2023-04-07T14:15:42;18.10;37.90
5639;DHT22;2841;44.526;11.360;2023-04-07T14:18:09;18.10;38.00
5639;DHT22;2841;44.526;11.360;2023-04-07T14:20:35;18.00;38.00
5639;DHT22;2841;44.526;11.360;2023-04-07T14:23:02;18.00;38.10
5639;DHT22;2841;44.526;11.360;2023-04-07T14:25:29;18.00;38.20
5639;DHT22;2841;44.526;11.360;2023-04-07T14:27:56;18.00;38.40
5639;DHT22;2841;44.526;11.360;2023-04-07T14:30:22;17.90;38.40
5639;DHT22;2841;44.526;11.360;2023-04-07T14:32:51;17.80;38.60
5639;DHT22;2841;44.526;11.360;2023-04-07T14:35:17;17.70;38.80
5639;DHT22;2841;44.526;11.360;2023-04-07T14:37:44;17.60;38.90
5639;DHT22;2841;44.526;11.360;2023-04-07T14:40:11;17.50;39.10
5639;DHT22;2841;44.526;11.360;2023-04-07T14:42:38;17.40;39.30
5639;DHT22;2841;44.526;11.360;2023-04-07T14:45:06;17.30;39.40
5639;DHT22;2841;44.526;11.360;2023-04-07T14:47:33;17.20;39.50
5639;DHT22;2841;44.526;11.360;2023-04-07T14:50:01;17.10;39.70
5639;DHT22;2841;44.526;11.360;2023-04-07T14:52:28;17.10;39.90
5639;DHT22;2841;44.526;11.360;2023-04-07T14:54:54;17.00;40.00
5639;DHT22;2841;44.526;11.360;2023-04-07T14:57:21;16.90;40.10
5639;DHT22;2841;44.526;11.360;2023-04-07T14:59:48;16.90;40.20
5639;DHT22;2841;44.526;11.360;2023-04-07T15:02:15;16.80;40.40
5639;DHT22;2841;44.526;11.360;2023-04-07T15:04:41;16.70;40.40
5639;DHT22;2841;44.526;11.360;2023-04-07T15:07:09;16.70;40.50
5639;DHT22;2841;44.526;11.360;2023-04-07T15:09:36;16.70;40.50
5639;DHT22;2841;44.526;11.360;2023-04-07T15:12:03;16.60;40.50
5639;DHT22;2841;44.526;11.360;2023-04-07T15:14:30;16.50;40.50
5639;DHT22;2841;44.526;11.360;2023-04-07T15:16:56;16.50;40.70
5639;DHT22;2841;44.526;11.360;2023-04-07T15:19:23;16.40;40.70
5639;DHT22;2841;44.526;11.360;2023-04-07T15:21:50;16.40;40.90
5639;DHT22;2841;44.526;11.360;2023-04-07T15:24:18;16.30;40.90
5639;DHT22;2841;44.526;11.360;2023-04-07T15:26:46;16.20;41.00
5639;DHT22;2841;44.526;11.360;2023-04-07T15:29:13;16.10;41.00
5639;DHT22;2841;44.526;11.360;2023-04-07T15:31:39;16.00;41.00
5639;DHT22;2841;44.526;11.360;2023-04-07T15:34:06;16.00;41.20
5639;DHT22;2841;44.526;11.360;2023-04-07T15:36:33;15.90;41.30
5639;DHT22;2841;44.526;11.360;2023-04-07T15:39:01;15.80;41.30
5639;DHT22;2841;44.526;11.360;2023-04-07T15:41:29;15.70;41.30
5639;DHT22;2841;44.526;11.360;2023-04-07T15:43:57;15.70;41.40
5639;DHT22;2841;44.526;11.360;2023-04-07T15:46:24;15.70;41.50
5639;DHT22;2841;44.526;11.360;2023-04-07T15:48:50;15.60;41.50
5639;DHT22;2841;44.526;11.360;2023-04-07T15:51:17;15.60;41.60
5639;DHT22;2841;44.526;11.360;2023-04-07T15:53:44;15.50;41.60
5639;DHT22;2841;44.526;11.360;2023-04-07T15:56:11;15.50;41.70
5639;DHT22;2841;44.526;11.360;2023-04-07T15:58:39;15.40;41.80